Dirección General De Aeronáutica Civil

Dirección Meteorológica de Chile - Servicios Climáticos

Informe General de Control de Calidad de la Estación

Listado de niveles de control de calidad para algunos parámetros
Estación Hospital (330093)
Fecha de Revisión de los datos :

Elementos

Registros Niveles de Control Total
Nivel 0 Nivel 1 Nivel 2 Nivel 3 Errores Porcentaje
01 Temperatura del Aire Seco 19.989 1 0.01 % 0 . 0 . 0 . 1 0.01 %
02 Humedad Relativa del Aire 0 0 . 0 . 0 . 0 . 0 .
03 Temperatura Máxima PM 6.950 0 . 0 . 45 0.65 % 0 . 45 0.65 %
04 Temperatura Mínima AM 6.917 0 . 0 . 36 0.52 % 0 . 36 0.52 %
05 Viento a 10 m. de Altura 0 0 . 0 . 0 . 0 . 0 .

Totales

33.856 . 0.0030 % . 0.0000 % . 0.2392 % . 0.0000 % 82 0.2422 %

Detalle de Errores Encontrados

Nivel Fecha del Dato Descripción Información Error Fecha Ingreso
0 2007-07-09 00:00:00 Ts (Temperatura Del Aire) debe ser numérico, entre -50.0 y 50.0 96.5 2022-01-06 14:40:00
Errores del Nivel 1
Nivel Fecha del Dato Descripción Información Error Fecha Ingreso
2 1992-05-16 00:00:00 Temperatura 18.4 del 15-05-1992 18:00, Mayor que la Máxima 18.2 16-05-1992 00:00 18.4 -- 18.2 2023-12-29 01:51:00
2 1995-01-30 00:00:00 Temperatura 29.8 del 29-01-1995 18:00, Mayor que la Máxima 28.8 30-01-1995 00:00 29.8 -- 28.8 2023-12-29 01:54:00
2 1998-05-26 00:00:00 Temperatura 19.8 del 25-05-1998 18:00, Mayor que la Máxima 19.4 26-05-1998 00:00 19.8 -- 19.4 2023-12-29 01:57:00
2 2000-02-23 00:00:00 Temperatura 27.8 del 23-02-2000 00:00, Mayor que la Máxima 25.3 23-02-2000 00:00 27.8 -- 25.3 2022-04-06 15:08:00
2 2000-03-30 00:00:00 Temperatura 27.0 del 29-03-2000 18:00, Mayor que la Máxima 26.6 30-03-2000 00:00 27.0 -- 26.6 2022-04-06 16:56:00
2 2000-06-23 00:00:00 Temperatura 17.6 del 22-06-2000 18:00, Mayor que la Máxima 17.4 23-06-2000 00:00 17.6 -- 17.4 2022-04-07 15:29:00
2 2000-06-26 00:00:00 Temperatura 13.2 del 25-06-2000 18:00, Mayor que la Máxima 13.0 26-06-2000 00:00 13.2 -- 13.0 2022-04-07 15:33:00
2 2000-08-13 00:00:00 Temperatura 16.7 del 12-08-2000 18:00, Mayor que la Máxima 16.6 13-08-2000 00:00 16.7 -- 16.6 2022-04-07 17:26:00
2 2003-09-18 00:00:00 Temperatura 23.5 del 17-09-2003 18:00, Mayor que la Máxima 23.4 18-09-2003 00:00 23.5 -- 23.4 2021-04-09 19:27:00
2 2004-10-28 00:00:00 Temperatura 27.4 del 27-10-2004 18:00, Mayor que la Máxima 27.0 28-10-2004 00:00 27.4 -- 27.0 2021-03-31 16:43:00
2 2005-10-16 00:00:00 Temperatura 17.6 del 15-10-2005 18:00, Mayor que la Máxima 12.8 16-10-2005 00:00 17.6 -- 12.8 2021-04-23 14:27:00
2 2005-12-03 00:00:00 Temperatura 25.8 del 02-12-2005 18:00, Mayor que la Máxima 25.2 03-12-2005 00:00 25.8 -- 25.2 2021-04-26 12:49:00
2 2006-07-05 00:00:00 Temperatura 24.4 del 04-07-2006 18:00, Mayor que la Máxima 24.2 05-07-2006 00:00 24.4 -- 24.2 2021-03-04 15:27:00
2 2007-04-17 00:00:00 Temperatura 26.6 del 17-04-2007 00:00, Mayor que la Máxima 23.6 17-04-2007 00:00 26.6 -- 23.6 2022-01-05 15:09:00
2 2007-07-01 00:00:00 Temperatura 14.6 del 01-07-2007 00:00, Mayor que la Máxima 10.4 01-07-2007 00:00 14.6 -- 10.4 2022-01-06 14:07:00
2 2007-07-09 00:00:00 Temperatura 96.5 del 09-07-2007 00:00, Mayor que la Máxima 12.0 09-07-2007 00:00 96.5 -- 12.0 2022-01-06 14:40:00
2 2007-10-03 00:00:00 Temperatura 27.0 del 02-10-2007 18:00, Mayor que la Máxima 24.6 03-10-2007 00:00 27.0 -- 24.6 2022-01-11 14:02:00
2 2008-07-29 00:00:00 Temperatura 15.8 del 29-07-2008 00:00, Mayor que la Máxima 15.4 29-07-2008 00:00 15.8 -- 15.4 2022-02-16 16:15:00
2 2008-09-14 00:00:00 Temperatura 24.2 del 13-09-2008 18:00, Mayor que la Máxima 24.1 14-09-2008 00:00 24.2 -- 24.1 2022-02-17 12:51:00
2 2009-01-09 00:00:00 Temperatura 34.2 del 08-01-2009 18:00, Mayor que la Máxima 33.0 09-01-2009 00:00 34.2 -- 33.0 2022-01-06 13:47:00
2 2009-03-08 00:00:00 Temperatura 35.0 del 07-03-2009 18:00, Mayor que la Máxima 26.0 08-03-2009 00:00 35.0 -- 26.0 2022-01-06 16:31:00
2 2009-03-17 00:00:00 Temperatura 36.0 del 16-03-2009 18:00, Mayor que la Máxima 24.8 17-03-2009 00:00 36.0 -- 24.8 2022-01-06 18:27:00
2 2009-03-28 00:00:00 Temperatura 27.2 del 27-03-2009 18:00, Mayor que la Máxima 27.0 28-03-2009 00:00 27.2 -- 27.0 2022-01-06 18:59:00
2 2009-04-17 00:00:00 Temperatura 26.1 del 16-04-2009 18:00, Mayor que la Máxima 25.2 17-04-2009 00:00 26.1 -- 25.2 2022-01-07 12:22:00
2 2009-04-18 00:00:00 Temperatura 27.0 del 17-04-2009 18:00, Mayor que la Máxima 14.2 18-04-2009 00:00 27.0 -- 14.2 2022-01-07 12:27:00
2 2009-04-22 00:00:00 Temperatura 32.0 del 21-04-2009 18:00, Mayor que la Máxima 31.0 22-04-2009 00:00 32.0 -- 31.0 2022-01-07 12:44:00
2 2009-05-19 00:00:00 Temperatura 18.0 del 18-05-2009 18:00, Mayor que la Máxima 17.0 19-05-2009 00:00 18.0 -- 17.0 2022-01-07 19:21:00
2 2009-05-30 00:00:00 Temperatura 17.4 del 30-05-2009 00:00, Mayor que la Máxima 17.2 30-05-2009 00:00 17.4 -- 17.2 2022-01-10 13:36:00
2 2009-06-04 00:00:00 Temperatura 20.2 del 03-06-2009 18:00, Mayor que la Máxima 19.0 04-06-2009 00:00 20.2 -- 19.0 2022-01-10 14:03:00
2 2009-06-20 00:00:00 Temperatura 9.2 del 19-06-2009 18:00, Mayor que la Máxima 9.0 20-06-2009 00:00 9.2 -- 9.0 2022-01-10 16:20:00
2 2009-07-05 00:00:00 Temperatura 11.4 del 04-07-2009 18:00, Mayor que la Máxima 10.0 05-07-2009 00:00 11.4 -- 10.0 2022-01-10 17:11:00
2 2009-07-08 00:00:00 Temperatura 12.2 del 07-07-2009 18:00, Mayor que la Máxima 10.8 08-07-2009 00:00 12.2 -- 10.8 2022-01-10 17:23:00
2 2009-07-09 00:00:00 Temperatura 14.2 del 08-07-2009 18:00, Mayor que la Máxima 14.0 09-07-2009 00:00 14.2 -- 14.0 2022-01-10 17:24:00
2 2009-08-08 00:00:00 Temperatura 15.0 del 07-08-2009 18:00, Mayor que la Máxima 13.0 08-08-2009 00:00 15.0 -- 13.0 2022-01-10 20:12:00
2 2009-08-24 00:00:00 Temperatura 14.0 del 23-08-2009 18:00, Mayor que la Máxima 13.9 24-08-2009 00:00 14.0 -- 13.9 2022-01-11 12:27:00
2 2009-09-15 00:00:00 Temperatura 17.0 del 14-09-2009 18:00, Mayor que la Máxima 15.7 15-09-2009 00:00 17.0 -- 15.7 2022-01-11 14:47:00
2 2009-10-25 00:00:00 Temperatura 16.4 del 24-10-2009 18:00, Mayor que la Máxima 16.3 25-10-2009 00:00 16.4 -- 16.3 2022-01-11 18:48:00
2 2009-10-26 00:00:00 Temperatura 27.0 del 25-10-2009 18:00, Mayor que la Máxima 24.1 26-10-2009 00:00 27.0 -- 24.1 2022-01-11 18:50:00
2 2009-11-10 00:00:00 Temperatura 23.2 del 09-11-2009 18:00, Mayor que la Máxima 18.0 10-11-2009 00:00 23.2 -- 18.0 2022-01-11 19:21:00
2 2010-03-23 00:00:00 Temperatura 26.0 del 22-03-2010 18:00, Mayor que la Máxima 23.0 23-03-2010 00:00 26.0 -- 23.0 2022-01-13 17:08:00
2 2010-05-06 00:00:00 Temperatura 19.4 del 05-05-2010 18:00, Mayor que la Máxima 16.0 06-05-2010 00:00 19.4 -- 16.0 2022-01-14 18:22:00
2 2010-05-27 00:00:00 Temperatura 15.2 del 26-05-2010 18:00, Mayor que la Máxima 15.0 27-05-2010 00:00 15.2 -- 15.0 2022-01-19 16:13:00
2 2010-06-08 00:00:00 Temperatura 22.0 del 07-06-2010 18:00, Mayor que la Máxima 13.0 08-06-2010 00:00 22.0 -- 13.0 2022-01-19 18:09:00
2 2010-09-23 00:00:00 Temperatura 23.0 del 22-09-2010 18:00, Mayor que la Máxima 22.8 23-09-2010 00:00 23.0 -- 22.8 2022-01-20 14:04:00
2 2011-07-20 00:00:00 Temperatura 5.5 del 20-07-2011 00:00, Mayor que la Máxima 4.9 20-07-2011 00:00 5.5 -- 4.9 2023-11-13 02:57:00
2 1999-11-11 12:00:00 Temperatura 13.0 del 11-11-1999 12:00, Menor que la Mínima 18.4 11-11-1999 12:00 13.0 -- 18.4 2021-03-14 15:21:00
2 2003-02-24 12:00:00 Temperatura 14.0 del 24-02-2003 12:00, Menor que la Mínima 19.4 24-02-2003 12:00 14.0 -- 19.4 2021-04-05 21:51:00
2 2004-08-10 12:00:00 Temperatura 5.9 del 10-08-2004 12:00, Menor que la Mínima 6.0 10-08-2004 12:00 5.9 -- 6.0 2021-03-29 19:25:00
2 2008-03-13 12:00:00 Temperatura 11.6 del 13-03-2008 12:00, Menor que la Mínima 11.8 13-03-2008 12:00 11.6 -- 11.8 2022-02-14 18:21:00
2 2008-03-14 12:00:00 Temperatura 12.0 del 14-03-2008 12:00, Menor que la Mínima 12.2 14-03-2008 12:00 12.0 -- 12.2 2022-02-14 18:23:00
2 2008-04-08 12:00:00 Temperatura 10.0 del 08-04-2008 12:00, Menor que la Mínima 11.2 08-04-2008 12:00 10.0 -- 11.2 2022-02-14 19:40:00
2 2008-06-29 12:00:00 Temperatura 2.4 del 29-06-2008 12:00, Menor que la Mínima 7.8 29-06-2008 12:00 2.4 -- 7.8 2022-02-16 11:47:00
2 2008-07-07 12:00:00 Temperatura 4.8 del 07-07-2008 12:00, Menor que la Mínima 40.0 07-07-2008 12:00 4.8 -- 40.0 2022-02-16 13:01:00
2 2009-03-08 12:00:00 Temperatura 10.6 del 08-03-2009 12:00, Menor que la Mínima 11.0 08-03-2009 12:00 10.6 -- 11.0 2022-01-06 16:32:00
2 2009-03-19 12:00:00 Temperatura 11.6 del 19-03-2009 12:00, Menor que la Mínima 11.7 19-03-2009 12:00 11.6 -- 11.7 2022-01-06 18:35:00
2 2009-04-03 12:00:00 Temperatura 13.1 del 03-04-2009 12:00, Menor que la Mínima 13.3 03-04-2009 12:00 13.1 -- 13.3 2022-01-06 19:35:00
2 2009-04-17 12:00:00 Temperatura 11.2 del 17-04-2009 12:00, Menor que la Mínima 12.8 17-04-2009 12:00 11.2 -- 12.8 2022-01-07 12:27:00
2 2009-05-27 12:00:00 Temperatura 1.4 del 27-05-2009 12:00, Menor que la Mínima 14.0 27-05-2009 12:00 1.4 -- 14.0 2022-01-10 12:57:00
2 2009-06-11 12:00:00 Temperatura -0.3 del 11-06-2009 12:00, Menor que la Mínima -0.2 11-06-2009 12:00 -0.3 -- -0.2 2022-01-10 14:44:00
2 2009-06-29 12:00:00 Temperatura 1.8 del 29-06-2009 12:00, Menor que la Mínima 16.8 29-06-2009 12:00 1.8 -- 16.8 2022-01-10 16:37:00
2 2009-07-29 12:00:00 Temperatura -0.2 del 29-07-2009 12:00, Menor que la Mínima 0.6 29-07-2009 12:00 -0.2 -- 0.6 2022-01-10 19:44:00
2 2010-03-30 12:00:00 Temperatura 10.0 del 30-03-2010 12:00, Menor que la Mínima 12.6 30-03-2010 12:00 10.0 -- 12.6 2022-01-13 20:17:00
2 2010-04-06 12:00:00 Temperatura 11.6 del 06-04-2010 12:00, Menor que la Mínima 12.0 06-04-2010 12:00 11.6 -- 12.0 2022-01-13 20:52:00
2 2010-04-20 12:00:00 Temperatura 9.0 del 20-04-2010 12:00, Menor que la Mínima 9.4 20-04-2010 12:00 9.0 -- 9.4 2022-01-14 12:56:00
2 2010-04-21 12:00:00 Temperatura 3.8 del 21-04-2010 12:00, Menor que la Mínima 4.2 21-04-2010 12:00 3.8 -- 4.2 2022-01-14 12:56:00
2 2010-04-22 12:00:00 Temperatura 6.0 del 22-04-2010 12:00, Menor que la Mínima 6.2 22-04-2010 12:00 6.0 -- 6.2 2022-01-14 16:30:00
2 2010-07-18 12:00:00 Temperatura -1.0 del 18-07-2010 12:00, Menor que la Mínima -0.8 18-07-2010 12:00 -1.0 -- -0.8 2022-01-19 19:56:00
2 2010-08-13 12:00:00 Temperatura 1.8 del 13-08-2010 12:00, Menor que la Mínima 2.0 13-08-2010 12:00 1.8 -- 2.0 2022-01-20 12:28:00
2 2010-09-30 12:00:00 Temperatura 10.6 del 30-09-2010 12:00, Menor que la Mínima 11.0 30-09-2010 12:00 10.6 -- 11.0 2022-01-20 14:12:00
2 2011-04-22 12:00:00 Temperatura 10.5 del 22-04-2011 12:00, Menor que la Mínima 10.6 22-04-2011 12:00 10.5 -- 10.6 2023-11-13 03:27:00
2 2011-05-25 12:00:00 Temperatura 1.1 del 25-05-2011 12:00, Menor que la Mínima 1.2 25-05-2011 12:00 1.1 -- 1.2 2023-11-13 02:57:00
2 2011-05-26 12:00:00 Temperatura 0.3 del 26-05-2011 12:00, Menor que la Mínima 1.6 26-05-2011 12:00 0.3 -- 1.6 2023-11-13 02:57:00
2 2011-05-27 12:00:00 Temperatura 1.4 del 27-05-2011 12:00, Menor que la Mínima 1.8 27-05-2011 12:00 1.4 -- 1.8 2023-11-13 02:57:00
2 2011-05-29 12:00:00 Temperatura -0.6 del 29-05-2011 12:00, Menor que la Mínima -0.1 29-05-2011 12:00 -0.6 -- -0.1 2023-11-13 02:57:00
2 2011-07-06 12:00:00 Temperatura 1.0 del 06-07-2011 12:00, Menor que la Mínima 1.2 06-07-2011 12:00 1.0 -- 1.2 2023-11-13 02:57:00
2 2011-08-22 12:00:00 Temperatura 0.0 del 22-08-2011 12:00, Menor que la Mínima 0.4 22-08-2011 12:00 0.0 -- 0.4 2023-11-13 02:57:00
2 2011-08-23 12:00:00 Temperatura 3.2 del 23-08-2011 12:00, Menor que la Mínima 3.4 23-08-2011 12:00 3.2 -- 3.4 2023-11-13 02:57:00
2 2011-08-27 12:00:00 Temperatura 7.4 del 27-08-2011 12:00, Menor que la Mínima 7.8 27-08-2011 12:00 7.4 -- 7.8 2023-11-13 02:57:00
2 2011-10-21 12:00:00 Temperatura 9.6 del 21-10-2011 12:00, Menor que la Mínima 9.7 21-10-2011 12:00 9.6 -- 9.7 2023-11-13 02:57:00
2 2011-12-23 12:00:00 Temperatura 17.2 del 23-12-2011 12:00, Menor que la Mínima 18.0 23-12-2011 12:00 17.2 -- 18.0 2023-11-13 02:57:00
2 2011-12-24 12:00:00 Temperatura 17.6 del 24-12-2011 12:00, Menor que la Mínima 18.0 24-12-2011 12:00 17.6 -- 18.0 2023-11-13 02:57:00
Errores del Nivel 81
Informe generado el 05-03-2024 09:56
Requerimiento: RE6001